createdAt,value
2023-05-01T00:03:01.862Z,67.5
2023-05-01T00:15:01.732Z,70
2023-05-01T00:27:01.696Z,71
2023-05-01T00:39:01.870Z,71
2023-05-01T00:51:01.807Z,69
2023-05-01T01:03:01.778Z,68
2023-05-01T01:15:01.919Z,69
2023-05-01T01:27:01.848Z,71.5
2023-05-01T01:39:01.859Z,65.5
2023-05-01T01:51:01.766Z,68.5
2023-05-01T02:03:01.795Z,69
2023-05-01T02:15:01.896Z,68.5
2023-05-01T02:27:01.876Z,65
2023-05-01T02:39:01.828Z,71.5
2023-05-01T02:51:01.992Z,70
2023-05-01T03:03:01.979Z,73
2023-05-01T03:15:01.917Z,70
2023-05-01T03:27:01.840Z,72
2023-05-01T03:39:02.049Z,72.5
2023-05-01T03:51:01.981Z,75
2023-05-01T04:03:02.419Z,75.5
2023-05-01T04:15:01.858Z,75.5
2023-05-01T04:27:02.062Z,80.5
2023-05-01T04:39:02.018Z,78.5
2023-05-01T04:51:01.953Z,76
2023-05-01T05:03:02.208Z,75
2023-05-01T05:15:02.092Z,76
2023-05-01T05:27:01.996Z,74.5
2023-05-01T05:39:02.047Z,73.5
2023-05-01T05:51:02.126Z,76.5
2023-05-01T06:03:02.158Z,73
2023-05-01T06:15:02.057Z,71.5
2023-05-01T06:27:02.024Z,78
2023-05-01T06:39:02.192Z,79
2023-05-01T06:51:02.136Z,79.5
2023-05-01T07:03:02.114Z,74
2023-05-01T07:15:02.254Z,74.5
2023-05-01T07:27:02.171Z,68
2023-05-01T07:39:02.188Z,73.5
2023-05-01T07:51:02.115Z,70
2023-05-01T08:03:02.425Z,51
2023-05-01T08:15:02.226Z,46
2023-05-01T08:27:02.209Z,52
2023-05-01T08:39:02.169Z,52
2023-05-01T08:51:02.307Z,48.5
2023-05-01T09:03:02.372Z,58
2023-05-01T09:15:02.246Z,54
2023-05-01T09:27:02.362Z,59
2023-05-01T09:39:02.832Z,57.5
2023-05-01T09:51:02.289Z,48.5
2023-05-01T10:03:02.393Z,49.5
2023-05-01T10:15:10.945Z,48
2023-05-01T10:27:02.363Z,46.5
2023-05-01T10:39:02.346Z,46
2023-05-01T10:51:02.277Z,46
2023-05-01T11:03:02.467Z,46
2023-05-01T11:15:02.409Z,48
2023-05-01T11:27:02.328Z,48
2023-05-01T11:39:02.542Z,47
2023-05-01T11:51:02.453Z,46.5
2023-05-01T12:03:02.696Z,48
2023-05-01T12:15:02.354Z,48
2023-05-01T12:27:02.536Z,48
2023-05-01T12:39:02.493Z,47
2023-05-01T12:51:02.452Z,46.5
2023-05-01T13:03:02.629Z,46.5
2023-05-01T13:15:02.564Z,48
2023-05-01T13:27:04.967Z,48
2023-05-01T13:39:02.550Z,48
2023-05-01T13:51:02.446Z,48
2023-05-01T14:03:03.211Z,48
2023-05-01T14:15:02.919Z,46.5
2023-05-01T14:27:02.545Z,48
2023-05-01T14:39:02.532Z,48
2023-05-01T14:51:02.668Z,48.5
2023-05-01T15:03:02.696Z,48.5
2023-05-01T15:15:02.601Z,47.5
2023-05-01T15:27:02.754Z,48
2023-05-01T15:39:02.764Z,50
2023-05-01T15:51:02.638Z,48.5
2023-05-01T16:03:02.710Z,50
2023-05-01T16:15:02.773Z,50
2023-05-01T16:27:02.738Z,50
2023-05-01T16:39:02.702Z,50
2023-05-01T16:51:02.642Z,50
2023-05-01T17:03:02.850Z,50
2023-05-01T17:15:02.816Z,50
2023-05-01T17:27:02.710Z,50
2023-05-01T17:39:02.752Z,50
2023-05-01T17:51:02.872Z,50
2023-05-01T18:03:02.921Z,50
2023-05-01T18:15:02.738Z,50
2023-05-01T18:27:02.880Z,50.5
2023-05-01T18:39:02.846Z,51.5
2023-05-01T18:51:08.800Z,50.5
2023-05-01T19:03:03.000Z,50.5
2023-05-01T19:15:03.135Z,51
2023-05-01T19:27:02.836Z,52.5
2023-05-01T19:39:03.045Z,55.5
2023-05-01T19:51:03.093Z,59
2023-05-01T20:03:03.020Z,57
2023-05-01T20:15:03.080Z,57.5
2023-05-01T20:27:03.026Z,57
2023-05-01T20:39:02.923Z,57
2023-05-01T20:51:02.975Z,57
2023-05-01T21:03:02.986Z,56
2023-05-01T21:15:02.964Z,58.5
2023-05-01T21:27:03.122Z,57.5
2023-05-01T21:39:03.102Z,58.5
2023-05-01T21:51:03.037Z,60.5
2023-05-01T22:03:03.185Z,62
2023-05-01T22:15:03.141Z,60
2023-05-01T22:27:03.094Z,58.5
2023-05-01T22:39:03.054Z,61
2023-05-01T22:51:03.034Z,59.5
2023-05-01T23:03:03.189Z,61.5
2023-05-01T23:15:03.249Z,63
2023-05-01T23:27:03.089Z,62
2023-05-01T23:39:03.088Z,59.5
2023-05-01T23:51:03.209Z,59.5
